createdAt,value
2022-09-23T00:04:36.515Z,80.63
2022-09-23T00:09:37.167Z,80.83
2022-09-23T00:14:37.892Z,81.34
2022-09-23T00:19:38.600Z,81.04
2022-09-23T00:24:39.345Z,80.73
2022-09-23T00:29:40.065Z,80.42
2022-09-23T00:34:40.846Z,80.21
2022-09-23T00:39:41.581Z,80.38
2022-09-23T00:44:42.289Z,80.38
2022-09-23T00:49:43.061Z,81.00
2022-09-23T00:54:43.808Z,81.10
2022-09-23T00:59:44.508Z,81.30
2022-09-23T01:04:45.249Z,81.71
2022-09-23T01:09:45.950Z,82.06
2022-09-23T01:14:46.707Z,82.89
2022-09-23T01:19:47.438Z,83.29
2022-09-23T01:24:48.153Z,83.40
2022-09-23T01:29:48.890Z,83.85
2022-09-23T01:34:49.606Z,83.85
2022-09-23T01:39:50.333Z,83.85
2022-09-23T01:44:51.074Z,83.95
2022-09-23T01:49:51.790Z,84.30
2022-09-23T01:54:52.521Z,85.12
2022-09-23T01:59:53.271Z,85.33
2022-09-23T02:04:53.967Z,85.02
2022-09-23T02:09:54.706Z,85.22
2022-09-23T02:14:55.429Z,86.40
2022-09-23T02:19:56.173Z,86.60
2022-09-23T02:24:56.921Z,86.91
2022-09-23T02:29:57.657Z,86.91
2022-09-23T02:34:58.376Z,86.91
2022-09-23T02:39:59.106Z,87.46
2022-09-23T02:44:59.887Z,88.29
2022-09-23T02:50:00.627Z,88.49
2022-09-23T02:55:08.555Z,88.70
2022-09-23T03:00:02.299Z,88.70
2022-09-23T03:05:03.087Z,88.49
2022-09-23T03:10:03.804Z,88.49
2022-09-23T03:15:04.561Z,88.24
2022-09-23T03:20:05.330Z,87.57
2022-09-23T03:25:06.072Z,87.98
2022-09-23T03:30:06.868Z,88.39
2022-09-23T03:35:07.546Z,88.49
2022-09-23T03:40:08.395Z,88.84
2022-09-23T03:45:09.154Z,89.25
2022-09-23T03:50:09.911Z,89.25
2022-09-23T03:55:10.608Z,89.15
2022-09-23T04:00:11.426Z,89.05
2022-09-23T04:05:12.185Z,89.05
2022-09-23T04:10:12.874Z,89.71
2022-09-23T04:15:13.759Z,89.71
2022-09-23T04:20:14.457Z,90.01
2022-09-23T04:25:15.186Z,89.67
2022-09-23T04:30:15.893Z,89.36
2022-09-23T04:35:16.575Z,89.46
2022-09-23T04:40:17.365Z,89.61
2022-09-23T04:45:18.013Z,89.91
2022-09-23T04:50:18.694Z,89.40
2022-09-23T04:55:19.375Z,89.05
2022-09-23T05:00:20.042Z,88.64
2022-09-23T05:05:20.737Z,88.64
2022-09-23T05:10:21.562Z,88.64
2022-09-23T05:15:22.273Z,88.53
2022-09-23T05:20:22.950Z,88.74
2022-09-23T05:25:23.711Z,88.95
2022-09-23T05:30:24.424Z,89.25
2022-09-23T05:35:25.118Z,89.05
2022-09-23T05:40:25.878Z,88.59
2022-09-23T05:45:27.021Z,87.98
2022-09-23T05:50:27.236Z,88.08
2022-09-23T05:55:27.940Z,87.94
2022-09-23T06:00:28.679Z,87.42
2022-09-23T06:05:29.399Z,86.87
2022-09-23T06:10:30.145Z,86.46
2022-09-23T06:15:30.865Z,85.90
2022-09-23T06:20:31.662Z,84.12
2022-09-23T06:25:32.278Z,83.26
2022-09-23T06:30:33.018Z,83.12
2022-09-23T06:35:33.702Z,82.15
2022-09-23T06:40:34.422Z,80.72
2022-09-23T06:45:35.145Z,80.27
2022-09-23T06:50:35.876Z,79.62
2022-09-23T06:55:36.520Z,79.68
2022-09-23T07:00:37.246Z,78.66
2022-09-23T07:05:37.891Z,77.50
2022-09-23T07:10:38.642Z,76.50
2022-09-23T07:15:39.381Z,76.16
2022-09-23T07:20:40.002Z,74.39
2022-09-23T07:25:40.789Z,73.84
2022-09-23T07:30:54.066Z,72.28
2022-09-23T07:35:42.991Z,70.81
2022-09-23T07:40:42.715Z,69.76
2022-09-23T07:45:43.388Z,70.78
2022-09-23T07:50:44.052Z,70.41
2022-09-23T07:55:44.735Z,68.13
2022-09-23T08:00:45.394Z,68.24
2022-09-23T08:05:46.065Z,68.51
2022-09-23T08:10:46.739Z,67.97
2022-09-23T08:15:49.988Z,67.16
2022-09-23T08:20:48.965Z,67.02
2022-09-23T08:25:48.640Z,67.13
2022-09-23T08:30:49.348Z,66.89
2022-09-23T08:35:50.016Z,65.84
2022-09-23T08:40:50.677Z,66.86
2022-09-23T08:45:51.430Z,66.32
2022-09-23T08:50:52.116Z,65.00
2022-09-23T08:55:59.790Z,64.79
2022-09-23T09:00:53.399Z,63.85
2022-09-23T09:05:54.547Z,64.15
2022-09-23T09:10:54.754Z,63.21
2022-09-23T09:15:55.389Z,62.71
2022-09-23T09:20:56.029Z,61.36
2022-09-23T09:25:56.703Z,61.02
2022-09-23T09:30:57.452Z,60.59
2022-09-23T09:35:58.155Z,60.08
2022-09-23T09:40:58.804Z,60.59
2022-09-23T09:45:59.503Z,59.99
2022-09-23T09:51:00.188Z,57.53
2022-09-23T09:56:04.623Z,57.70
2022-09-23T10:01:01.348Z,56.28
2022-09-23T10:06:02.059Z,57.70
2022-09-23T10:11:02.853Z,53.80
2022-09-23T10:16:03.737Z,52.26
2022-09-23T10:21:04.540Z,50.26
2022-09-23T10:26:05.226Z,49.25
2022-09-23T10:31:05.927Z,52.51
2022-09-23T10:36:06.880Z,53.34
2022-09-23T10:41:07.418Z,52.92
2022-09-23T10:46:08.157Z,52.44
2022-09-23T10:51:08.308Z,48.58
2022-09-23T10:56:09.005Z,48.65
2022-09-23T11:01:09.731Z,48.35
2022-09-23T11:06:10.374Z,46.53
2022-09-23T11:11:11.129Z,43.23
2022-09-23T11:16:11.892Z,45.95
2022-09-23T11:21:12.596Z,46.53
2022-09-23T11:26:13.284Z,46.23
2022-09-23T11:31:14.106Z,44.70
2022-09-23T11:36:14.784Z,45.30
2022-09-23T11:41:15.513Z,46.41
2022-09-23T11:46:16.445Z,46.64
2022-09-23T11:51:16.602Z,46.23
2022-09-23T11:56:28.147Z,46.94
2022-09-23T12:01:22.216Z,47.34
2022-09-23T12:06:19.397Z,46.94
2022-09-23T12:11:19.064Z,47.02
2022-09-23T12:16:19.762Z,46.39
2022-09-23T12:21:45.831Z,45.38
2022-09-23T12:26:22.063Z,45.07
2022-09-23T12:31:23.563Z,46.01
2022-09-23T12:36:22.160Z,45.40
2022-09-23T12:41:22.883Z,45.53
2022-09-23T12:46:24.260Z,45.50
2022-09-23T12:51:24.414Z,45.10
2022-09-23T12:56:25.193Z,46.51
2022-09-23T13:01:26.022Z,46.11
2022-09-23T13:06:26.730Z,44.70
2022-09-23T13:11:27.426Z,44.59
2022-09-23T13:16:28.136Z,44.70
2022-09-23T13:21:28.806Z,44.09
2022-09-23T13:26:29.514Z,44.98
2022-09-23T13:31:30.198Z,42.05
2022-09-23T13:36:30.917Z,43.24
2022-09-23T13:41:31.561Z,43.54
2022-09-23T13:46:32.228Z,42.72
2022-09-23T13:51:32.838Z,42.44
2022-09-23T13:56:33.587Z,43.26
2022-09-23T14:01:34.322Z,43.37
2022-09-23T14:06:35.026Z,44.21
2022-09-23T14:11:35.700Z,45.62
2022-09-23T14:16:36.486Z,45.81
2022-09-23T14:21:37.261Z,44.19
2022-09-23T14:26:37.984Z,43.38
2022-09-23T14:31:38.710Z,43.51
2022-09-23T14:36:39.536Z,44.23
2022-09-23T14:41:40.324Z,44.84
2022-09-23T14:46:41.037Z,45.14
2022-09-23T14:51:41.760Z,44.54
2022-09-23T14:56:42.508Z,44.34
2022-09-23T15:01:43.256Z,44.64
2022-09-23T15:06:43.931Z,44.86
2022-09-23T15:11:44.668Z,44.96
2022-09-23T15:16:45.367Z,44.56
2022-09-23T15:21:46.014Z,45.29
2022-09-23T15:26:46.704Z,45.39
2022-09-23T15:31:47.580Z,46.09
2022-09-23T15:36:48.377Z,46.09
2022-09-23T15:41:49.056Z,46.40
2022-09-23T15:46:49.703Z,46.30
2022-09-23T15:51:50.381Z,46.60
2022-09-23T15:56:51.288Z,47.20
2022-09-23T16:01:52.272Z,47.00
2022-09-23T16:06:52.694Z,47.83
2022-09-23T16:12:00.296Z,47.63
2022-09-23T16:16:54.062Z,47.96
2022-09-23T16:21:54.750Z,48.46
2022-09-23T16:26:55.403Z,48.69
2022-09-23T16:31:56.137Z,49.19
2022-09-23T16:36:56.777Z,49.40
2022-09-23T16:41:57.495Z,50.01
2022-09-23T16:46:58.154Z,50.13
2022-09-23T16:51:58.811Z,50.13
2022-09-23T16:56:59.539Z,50.54
2022-09-23T17:02:00.290Z,51.07
2022-09-23T17:07:00.943Z,51.80
2022-09-23T17:12:01.752Z,52.31
2022-09-23T17:17:02.393Z,52.73
2022-09-23T17:22:03.139Z,53.34
2022-09-23T17:27:03.835Z,54.18
2022-09-23T17:32:04.495Z,54.59
2022-09-23T17:37:05.287Z,55.32
2022-09-23T17:42:06.005Z,55.83
2022-09-23T17:47:06.783Z,56.16
2022-09-23T17:52:07.505Z,56.67
2022-09-23T17:57:08.287Z,57.51
2022-09-23T18:02:12.586Z,57.81
2022-09-23T18:07:10.624Z,57.95
2022-09-23T18:12:10.441Z,58.35
2022-09-23T18:17:11.207Z,59.16
2022-09-23T18:22:11.914Z,59.37
2022-09-23T18:27:12.622Z,59.27
2022-09-23T18:32:14.390Z,59.67
2022-09-23T18:37:16.167Z,59.80
2022-09-23T18:42:15.045Z,59.50
2022-09-23T18:47:15.897Z,59.60
2022-09-23T18:52:16.664Z,60.11
2022-09-23T18:57:17.358Z,60.21
2022-09-23T19:02:18.249Z,60.52
2022-09-23T19:07:19.042Z,61.05
2022-09-23T19:12:19.784Z,61.56
2022-09-23T19:17:20.591Z,61.69
2022-09-23T19:22:21.320Z,62.20
2022-09-23T19:27:22.056Z,62.61
2022-09-23T19:32:22.894Z,62.71
2022-09-23T19:37:23.629Z,62.92
2022-09-23T19:42:24.496Z,63.22
2022-09-23T19:47:25.271Z,63.32
2022-09-23T19:52:25.975Z,63.83
2022-09-23T19:57:26.732Z,63.83
2022-09-23T20:02:27.651Z,64.26
2022-09-23T20:07:28.484Z,64.67
2022-09-23T20:12:29.268Z,65.19
2022-09-23T20:17:29.993Z,64.67
2022-09-23T20:22:33.369Z,64.78
2022-09-23T20:27:31.365Z,65.28
2022-09-23T20:32:32.075Z,64.98
2022-09-23T20:37:32.806Z,65.49
2022-09-23T20:42:33.487Z,65.69
2022-09-23T20:47:34.345Z,65.62
2022-09-23T20:52:35.066Z,65.83
2022-09-23T20:57:35.779Z,65.83
2022-09-23T21:02:36.535Z,65.72
2022-09-23T21:07:37.254Z,65.92
2022-09-23T21:12:38.029Z,66.33
2022-09-23T21:17:38.705Z,66.03
2022-09-23T21:22:39.403Z,65.62
2022-09-23T21:27:40.132Z,65.92
2022-09-23T21:32:40.850Z,65.83
2022-09-23T21:37:41.560Z,65.52
2022-09-23T21:42:42.468Z,66.03
2022-09-23T21:47:43.132Z,65.52
2022-09-23T21:52:43.872Z,66.13
2022-09-23T21:57:44.570Z,66.23
2022-09-23T22:02:45.312Z,66.54
2022-09-23T22:07:46.062Z,66.13
2022-09-23T22:12:53.787Z,66.13
2022-09-23T22:17:47.561Z,66.23
2022-09-23T22:22:48.407Z,66.13
2022-09-23T22:27:49.116Z,66.74
2022-09-23T22:32:54.896Z,66.64
2022-09-23T22:37:51.512Z,66.97
2022-09-23T22:42:51.240Z,67.49
2022-09-23T22:47:51.898Z,67.38
2022-09-23T22:52:52.689Z,67.79
2022-09-23T22:57:53.380Z,67.99
2022-09-23T23:02:54.180Z,67.99
2022-09-23T23:07:54.927Z,68.30
2022-09-23T23:12:55.595Z,68.20
2022-09-23T23:17:56.388Z,68.51
2022-09-23T23:22:57.120Z,68.51
2022-09-23T23:27:57.786Z,68.51
2022-09-23T23:32:58.485Z,68.84
2022-09-23T23:37:59.278Z,69.25
2022-09-23T23:42:59.988Z,69.25
2022-09-23T23:48:00.710Z,69.56
2022-09-23T23:53:01.439Z,69.76
2022-09-23T23:58:02.171Z,70.27
